M I D A S
Marine Information and Data Acquisition System
Tripno 1057 of the Zeeleeuw from 2006-03-28 06:42:22 to 2006-03-28 11:14:48
Back to CruiseResearch ActivitiesStationsMapUnderway DataData graphs

EquipmentUnitsComment
TimeDGPSUTC
LatitudeDGPSDM.mWGS84
LongitudeDGPSDM.mWGS84
TemperatureSBE03/SBE38deg celciusITS90
ConductivitySBE21S/mITS90
SalinitySBE21 Practical Salinity Units
ChlorophylAChelsea fluorimeterg/lCalibrated in Aceton
Missing or incorrect values are displayed as -999
Sea surface data collected by the RV Zeeleeuw from 2006-03-28 06:41:08 to 2006-03-28 11:26:33
Time Latitude Longitude Temperature Conductivity Salinity ChlorophylA
2006-03-28 06:42:13 51°13.612 2°56.035 -999 0.544263 3.259938 60.367606
2006-03-28 06:43:13 51°13.632 2°55.959 -999 2.827879 26.894095 36.164255
2006-03-28 06:44:13 51°13.663 2°55.873 -999 2.749108 26.673708 39.602614
2006-03-28 06:45:14 51°13.698 2°55.79 -999 2.757276 26.879857 32.658477
2006-03-28 06:46:14 51°13.709 2°55.739 -999 2.77909 27.164034 28.54593
2006-03-28 06:47:14 51°13.715 2°55.746 -999 2.725748 26.594253 27.163845
2006-03-28 06:48:14 51°13.702 2°55.735 -999 2.707246 26.400748 26.691913
2006-03-28 06:49:13 51°13.743 2°55.704 -999 2.743219 26.838739 26.422238
2006-03-28 06:50:14 51°13.857 2°55.609 -999 2.663524 25.925 35.692324
2006-03-28 06:51:14 51°13.978 2°55.525 -999 2.75335 26.9858 28.208836
2006-03-28 06:52:14 51°14.079 2°55.454 -999 2.741255 26.87239 26.388529
2006-03-28 06:53:14 51°14.167 2°55.382 -999 2.703009 26.437435 26.253691
2006-03-28 06:54:14 51°14.241 2°55.29 -999 2.599655 25.273011 26.557076
2006-03-28 06:55:14 51°14.305 2°55.183 -999 2.474937 23.87266 26.253691
2006-03-28 06:56:13 51°14.369 2°55.069 -999 2.564726 24.87489 25.781759
2006-03-28 06:57:13 51°14.413 2°54.843 -999 2.549537 24.726049 25.377247
2006-03-28 06:58:13 51°14.41 2°54.545 -999 2.921884 29.012971 26.051435
2006-03-28 06:59:13 51°14.347 2°54.237 -999 3.066583 30.732098 26.219982
2006-03-28 07:00:13 51°14.233 2°53.935 -999 3.081686 30.8943 25.545794
2006-03-28 07:01:14 51°14.122 2°53.617 -999 3.064721 30.712329 25.309828
2006-03-28 07:02:13 51°14.008 2°53.31 -999 3.084375 30.930169 24.972734
2006-03-28 07:03:13 51°13.889 2°52.995 -999 3.12017 31.316907 24.264836
2006-03-28 07:04:13 51°13.77 2°52.679 -999 3.129585 31.417954 23.725486
2006-03-28 07:05:13 51°13.648 2°52.364 -999 3.134964 31.4698 23.52323
2006-03-28 07:06:13 51°13.531 2°52.045 -999 3.12855 31.398563 23.961452
2006-03-28 07:07:13 51°13.413 2°51.724 -999 3.139827 31.495652 23.219845
2006-03-28 07:08:13 51°13.294 2°51.406 -999 3.140965 31.507406 22.95017
2006-03-28 07:09:14 51°13.176 2°51.081 -999 3.133619 31.387327 22.613076
2006-03-28 07:10:14 51°13.061 2°50.757 -999 3.122548 31.230719 22.579366
2006-03-28 07:11:14 51°12.944 2°50.436 -999 3.125548 31.239561 22.849042
2006-03-28 07:12:14 51°12.828 2°50.114 -999 3.139515 31.356539 22.747913
2006-03-28 07:13:14 51°12.712 2°49.796 -999 3.161138 31.540423 22.3434
2006-03-28 07:14:14 51°12.598 2°49.476 -999 3.182969 31.69637 22.006306
2006-03-28 07:15:14 51°12.484 2°49.155 -999 3.208215 31.849813 21.770341
2006-03-28 07:16:14 51°12.37 2°48.836 -999 3.245468 32.183511 22.073725
2006-03-28 07:17:14 51°12.255 2°48.518 -999 3.252092 32.331802 22.040016
2006-03-28 07:18:14 51°12.142 2°48.197 -999 3.254161 32.36441 22.040016
2006-03-28 07:19:14 51°12.026 2°47.879 -999 3.255714 32.389551 22.040016
2006-03-28 07:20:13 51°11.914 2°47.564 -999 3.251162 32.498827 22.680494
2006-03-28 07:21:14 51°11.8 2°47.238 -999 3.247645 32.548253 22.646785
2006-03-28 07:22:14 51°11.689 2°46.918 -999 3.24868 32.57242 23.118717
2006-03-28 07:23:14 51°11.58 2°46.597 -999 3.256233 32.568542 22.815332
2006-03-28 07:24:14 51°11.471 2°46.276 -999 3.269065 32.634834 22.882751
2006-03-28 07:25:14 51°11.358 2°45.963 -999 3.277448 32.723988 25.006443
2006-03-28 07:26:14 51°11.267 2°45.631 -999 3.275896 32.743024 26.422238
2006-03-28 07:27:14 51°11.174 2°45.301 -999 3.284278 32.787815 25.579503
2006-03-28 07:28:14 51°11.085 2°44.969 -999 3.289763 32.821315 24.804187
2006-03-28 07:29:14 51°10.993 2°44.638 -999 3.290591 32.825941 23.759195
2006-03-28 07:30:14 51°10.904 2°44.304 -999 3.290902 32.842979 23.894033
2006-03-28 07:31:14 51°10.814 2°43.968 -999 3.288832 32.85275 24.905315
2006-03-28 07:32:14 51°10.726 2°43.632 -999 3.290902 32.866586 25.781759
2006-03-28 07:33:14 51°10.635 2°43.303 -999 3.295766 32.900443 27.703195
2006-03-28 07:34:12 51°10.558 2°42.978 -999 3.297939 32.916316 26.725623
2006-03-28 07:35:14 51°10.471 2°42.632 -999 3.299699 32.93215 26.2874
2006-03-28 07:36:14 51°10.395 2°42.291 -999 3.299181 32.930971 25.17499
2006-03-28 07:37:14 51°10.316 2°41.952 -999 3.297629 32.919245 24.63564
2006-03-28 07:38:14 51°10.235 2°41.617 -999 3.2938 32.891401 24.905315
2006-03-28 07:39:14 51°10.158 2°41.277 -999 3.295352 32.9095 24.736768
2006-03-28 07:40:14 51°10.08 2°40.939 -999 3.292972 32.892235 24.905315
2006-03-28 07:41:14 51°10.006 2°40.601 -999 3.296801 32.931917 25.2087
2006-03-28 07:42:14 51°9.929 2°40.264 -999 3.305184 33.006537 24.332255
2006-03-28 07:43:14 51°9.853 2°39.927 -999 3.313982 33.098494 23.186136
2006-03-28 07:44:14 51°9.776 2°39.59 -999 3.320399 33.167753 22.714204
2006-03-28 07:45:13 51°9.701 2°39.258 -999 3.327333 33.242761 22.613076
2006-03-28 07:46:14 51°9.625 2°38.915 -999 3.332302 33.301507 23.085007
2006-03-28 07:47:14 51°9.55 2°38.582 -999 3.328679 33.271461 23.354683
2006-03-28 07:48:14 51°9.473 2°38.25 -999 3.335303 33.355062 22.309691
2006-03-28 07:49:14 51°9.399 2°37.916 -999 3.34141 33.370238 21.871469
2006-03-28 07:50:14 51°9.325 2°37.583 -999 3.342858 33.31825 21.837759
2006-03-28 07:51:14 51°9.251 2°37.246 -999 3.344307 33.330603 21.938888
2006-03-28 07:52:14 51°9.177 2°36.911 -999 3.348655 33.430234 22.040016
2006-03-28 07:53:14 51°9.102 2°36.576 -999 3.348449 33.505582 22.478238
2006-03-28 07:54:14 51°9.03 2°36.233 -999 3.346482 33.505986 22.478238
2006-03-28 07:55:14 51°8.953 2°35.893 -999 3.345862 33.512998 22.680494
2006-03-28 07:56:14 51°8.868 2°35.558 -999 3.343688 33.496261 22.579366
2006-03-28 07:57:14 51°8.782 2°35.226 -999 3.340686 33.47495 22.511947
2006-03-28 07:58:14 51°8.695 2°34.891 -999 3.337788 33.447364 22.275982
2006-03-28 07:59:14 51°8.607 2°34.557 -999 3.33696 33.437232 22.444529
2006-03-28 08:00:14 51°8.517 2°34.223 -999 3.3411 33.478625 22.208563
2006-03-28 08:01:14 51°8.422 2°33.895 -999 3.347414 33.540469 22.107435
2006-03-28 08:02:14 51°8.323 2°33.573 -999 3.348553 33.533625 21.80405
2006-03-28 08:03:14 51°8.214 2°33.263 -999 3.347207 33.503836 21.669212
2006-03-28 08:04:14 51°8.109 2°32.951 -999 3.354556 33.577112 21.80405
2006-03-28 08:05:14 51°8.078 2°32.606 -999 3.349795 33.525158 22.107435
2006-03-28 08:06:14 51°8.18 2°32.34 -999 3.35528 33.566593 22.37711
2006-03-28 08:07:14 51°8.364 2°32.432 -999 3.355901 33.552158 22.107435
2006-03-28 08:08:14 51°8.555 2°32.554 -999 3.358697 33.642647 22.208563
2006-03-28 08:09:14 51°8.725 2°32.731 -999 3.341412 33.568573 21.500665
2006-03-28 08:10:12 51°8.88 2°32.927 -999 3.338618 33.575668 20.792768
2006-03-28 08:11:14 51°9.041 2°33.146 -999 3.343482 33.627151 20.590512
2006-03-28 08:12:14 51°9.2 2°33.365 -999 3.341516 33.593059 20.556802
2006-03-28 08:13:14 51°9.334 2°33.615 -999 3.341826 33.589985 20.556802
2006-03-28 08:14:14 51°9.451 2°33.892 -999 3.338514 33.566111 20.489383
2006-03-28 08:15:13 51°9.563 2°34.167 -999 3.333235 33.510027 20.455674
2006-03-28 08:16:14 51°9.684 2°34.449 -999 3.33986 33.623199 20.69164
2006-03-28 08:17:14 51°9.802 2°34.73 -999 3.33365 33.605309 21.129862
2006-03-28 08:18:14 51°9.917 2°35.019 -999 3.324232 33.541154 21.399537
2006-03-28 08:19:14 51°10.028 2°35.309 -999 3.321127 33.512017 21.129862
2006-03-28 08:20:14 51°10.15 2°35.58 -999 3.319574 33.50119 21.028734
2006-03-28 08:21:14 51°10.275 2°35.85 -999 3.31678 33.461493 21.062443
2006-03-28 08:22:13 51°10.396 2°36.112 -999 3.315641 33.441281 21.028734
2006-03-28 08:23:13 51°10.518 2°36.381 -999 3.323197 33.527696 21.163571
2006-03-28 08:24:12 51°10.643 2°36.64 -999 3.313778 33.424173 21.2647
2006-03-28 08:25:14 51°10.763 2°36.927 -999 3.322265 33.515399 21.096153
2006-03-28 08:26:12 51°10.887 2°37.181 -999 3.320299 33.500877 20.995024
2006-03-28 08:27:13 51°11.017 2°37.446 -999 3.318229 33.479579 20.826477
2006-03-28 08:28:14 51°11.143 2°37.715 -999 3.316676 33.4594 20.725349
2006-03-28 08:29:13 51°11.262 2°37.981 -999 3.317194 33.467996 20.792768
2006-03-28 08:30:14 51°11.39 2°38.256 -999 3.317815 33.469337 20.860187
2006-03-28 08:31:13 51°11.518 2°38.514 -999 3.317297 33.457005 21.129862
2006-03-28 08:32:14 51°11.649 2°38.784 -999 3.311087 33.383813 20.893896
2006-03-28 08:33:14 51°11.776 2°39.047 -999 3.287387 33.173558 20.084871
2006-03-28 08:34:14 51°11.901 2°39.311 -999 3.275485 33.064467 19.983742
2006-03-28 08:35:14 51°12.024 2°39.574 -999 3.262135 32.94646 19.983742
2006-03-28 08:36:14 51°12.147 2°39.837 -999 3.241439 32.764436 19.781486
2006-03-28 08:37:14 51°12.271 2°40.098 -999 3.224778 32.619079 19.714067
2006-03-28 08:38:12 51°12.392 2°40.352 -999 3.222398 32.595156 19.57923
2006-03-28 08:39:14 51°12.524 2°40.621 -999 3.216397 32.53705 19.54552
2006-03-28 08:40:12 51°12.645 2°40.877 -999 3.210912 32.48473 19.511811
2006-03-28 08:41:14 51°12.78 2°41.145 -999 3.210188 32.482092 19.54552
2006-03-28 08:42:14 51°12.89 2°41.426 -999 3.207187 32.455762 19.478101
2006-03-28 08:43:13 51°12.992 2°41.716 -999 3.205428 32.447909 19.410683
2006-03-28 08:44:14 51°13.107 2°41.999 -999 3.19922 32.394715 19.444392
2006-03-28 08:45:14 51°13.218 2°42.278 -999 3.194253 32.345395 19.511811
2006-03-28 08:46:14 51°13.333 2°42.546 -999 3.185665 32.255462 19.57923
2006-03-28 08:47:12 51°13.454 2°42.792 -999 3.169007 32.113076 19.680358
2006-03-28 08:48:14 51°13.58 2°43.061 -999 3.157109 32.013034 19.680358
2006-03-28 08:49:13 51°13.707 2°43.313 -999 3.148315 31.945011 19.714067
2006-03-28 08:50:13 51°13.832 2°43.57 -999 3.143245 31.893492 20.084871
2006-03-28 08:51:14 51°13.954 2°43.844 -999 3.131865 31.84134 20.388255
2006-03-28 08:52:14 51°14.069 2°44.117 -999 3.127313 31.829825 20.421965
2006-03-28 08:53:14 51°14.191 2°44.388 -999 3.122348 31.806399 20.455674
2006-03-28 08:54:14 51°14.314 2°44.662 -999 3.118934 31.790502 20.421965
2006-03-28 08:55:14 51°14.441 2°44.935 -999 3.11521 31.766567 20.421965
2006-03-28 08:56:12 51°14.567 2°45.198 -999 3.110347 31.710815 20.388255
2006-03-28 08:57:12 51°14.695 2°45.48 -999 3.104347 31.677392 20.421965
2006-03-28 08:58:12 51°14.824 2°45.754 -999 3.097727 31.646833 20.489383
2006-03-28 08:59:12 51°14.943 2°46.043 -999 3.095037 31.639905 20.489383
2006-03-28 09:00:14 51°15.079 2°46.332 -999 3.095037 31.659789 20.421965
2006-03-28 09:01:14 51°15.213 2°46.611 -999 3.098658 31.699855 20.455674
2006-03-28 09:02:14 51°15.343 2°46.903 -999 3.106727 31.759434 20.590512
2006-03-28 09:03:13 51°15.469 2°47.188 -999 3.112003 31.800962 20.725349
2006-03-28 09:04:14 51°15.603 2°47.48 -999 3.118314 31.858691 20.69164
2006-03-28 09:05:13 51°15.743 2°47.746 -999 3.124418 31.92679 20.590512
2006-03-28 09:06:13 51°15.883 2°48.021 -999 3.11728 31.880622 20.590512
2006-03-28 09:07:14 51°16.024 2°48.301 -999 3.106211 31.814414 21.028734
2006-03-28 09:08:13 51°16.164 2°48.576 -999 3.100521 31.794502 21.433247
2006-03-28 09:09:14 51°16.311 2°48.854 -999 3.09897 31.804225 20.927606
2006-03-28 09:10:14 51°16.452 2°49.131 -999 3.097004 31.793759 20.65793
2006-03-28 09:11:14 51°16.591 2°49.407 -999 3.096797 31.792321 20.69164
2006-03-28 09:12:13 51°16.729 2°49.671 -999 3.09628 31.776423 20.421965
2006-03-28 09:13:14 51°16.863 2°49.949 -999 3.094832 31.758162 20.219708
2006-03-28 09:14:13 51°17.01 2°50.193 -999 3.091418 31.721233 20.084871
2006-03-28 09:15:14 51°17.182 2°50.403 -999 3.089969 31.704796 19.882614
2006-03-28 09:16:15 51°17.364 2°50.595 -999 3.085521 31.664303 19.714067
2006-03-28 09:17:15 51°17.541 2°50.797 -999 3.078694 31.60767 19.612939
2006-03-28 09:18:15 51°17.679 2°51.069 -999 3.07497 31.573546 19.680358
2006-03-28 09:19:15 51°17.795 2°51.372 -999 3.071453 31.530897 19.815195
2006-03-28 09:20:15 51°17.913 2°51.675 -999 3.068349 31.497479 19.950033
2006-03-28 09:21:15 51°18.016 2°51.996 -999 3.06597 31.438894 20.084871
2006-03-28 09:22:15 51°18.11 2°52.322 -999 3.062659 31.391466 20.320836
2006-03-28 09:23:15 51°18.212 2°52.636 -999 3.061521 31.374974 20.624221
2006-03-28 09:24:15 51°18.313 2°52.957 -999 3.054694 31.256431 20.927606
2006-03-28 09:25:15 51°18.406 2°53.28 -999 3.047556 31.164115 21.23099
2006-03-28 09:26:15 51°18.495 2°53.608 -999 3.03866 31.039611 21.365828
2006-03-28 09:27:15 51°18.591 2°53.929 -999 3.030799 30.938495 21.500665
2006-03-28 09:28:15 51°18.687 2°54.248 -999 3.023351 30.848326 21.635503
2006-03-28 09:29:15 51°18.783 2°54.572 -999 3.019834 30.808678 21.702922
2006-03-28 09:30:14 51°18.882 2°54.889 -999 3.016317 30.750596 21.669212
2006-03-28 09:31:15 51°18.982 2°55.219 -999 3.015282 30.696022 21.433247
2006-03-28 09:32:15 51°19.062 2°55.557 -999 3.016007 30.707666 21.197281
2006-03-28 09:33:15 51°19.152 2°55.892 -999 3.018903 30.734118 21.028734
2006-03-28 09:34:15 51°19.235 2°56.23 -999 3.016937 30.703264 21.028734
2006-03-28 09:35:15 51°19.322 2°56.567 -999 3.023143 30.766925 21.028734
2006-03-28 09:36:15 51°19.406 2°56.908 -999 3.022729 30.753514 20.927606
2006-03-28 09:37:15 51°19.49 2°57.252 -999 3.024385 30.787898 20.792768
2006-03-28 09:38:15 51°19.581 2°57.59 -999 3.025523 30.810352 20.725349
2006-03-28 09:39:15 51°19.673 2°57.931 -999 3.025833 30.825263 20.759059
2006-03-28 09:40:15 51°19.755 2°58.277 -999 3.023868 30.797872 20.759059
2006-03-28 09:41:15 51°19.842 2°58.62 -999 3.025936 30.817642 20.792768
2006-03-28 09:42:15 51°19.936 2°58.959 -999 3.025626 30.822934 20.759059
2006-03-28 09:43:15 51°20.034 2°59.3 -999 3.022523 30.781862 20.759059
2006-03-28 09:44:15 51°20.123 2°59.651 -999 3.020868 30.729959 20.69164
2006-03-28 09:45:15 51°20.214 3°0.003 -999 3.016316 30.642176 20.624221
2006-03-28 09:46:15 51°20.308 3°0.353 -999 3.011661 30.541319 20.69164
2006-03-28 09:47:15 51°20.406 3°0.698 -999 3.008868 30.452135 20.725349
2006-03-28 09:48:15 51°20.512 3°1.038 -999 3.007006 30.406348 20.725349
2006-03-28 09:49:15 51°20.612 3°1.383 -999 3.005454 30.38472 20.69164
2006-03-28 09:50:15 51°20.709 3°1.738 -999 3.00866 30.410208 20.69164
2006-03-28 09:51:15 51°20.804 3°2.091 -999 3.008971 30.400777 20.69164
2006-03-28 09:52:15 51°20.893 3°2.453 -999 3.009694 30.390818 20.725349
2006-03-28 09:53:15 51°20.987 3°2.809 -999 3.010522 30.383741 20.759059
2006-03-28 09:54:15 51°21.083 3°3.172 -999 3.010625 30.394334 20.792768
2006-03-28 09:55:15 51°21.177 3°3.534 -999 3.010625 30.411512 20.961315
2006-03-28 09:56:15 51°21.275 3°3.89 -999 3.008143 30.398416 21.062443
2006-03-28 09:57:15 51°21.373 3°4.251 -999 3.008557 30.3953 21.096153
2006-03-28 09:58:15 51°21.466 3°4.612 -999 3.007936 30.390092 21.096153
2006-03-28 09:59:15 51°21.552 3°4.982 -999 3.007936 30.380645 20.995024
2006-03-28 10:00:15 51°21.632 3°5.356 -999 3.008557 30.377269 20.961315
2006-03-28 10:01:15 51°21.714 3°5.725 -999 3.010832 30.37691 20.893896
2006-03-28 10:02:15 51°21.796 3°6.1 -999 3.011866 30.371296 20.860187
2006-03-28 10:03:15 51°21.854 3°6.484 -999 3.012073 30.370174 20.860187
2006-03-28 10:04:15 51°21.888 3°6.879 -999 3.013314 30.392572 20.826477
2006-03-28 10:05:15 51°21.841 3°7.253 -999 3.008247 30.40043 20.455674
2006-03-28 10:06:15 51°21.691 3°7.513 -999 3.007523 30.384615 20.523093
2006-03-28 10:07:15 51°21.517 3°7.474 -999 3.0129 30.375109 21.332118
2006-03-28 10:08:15 51°21.357 3°7.34 -999 3.014348 30.388667 20.624221
2006-03-28 10:09:15 51°21.199 3°7.204 -999 3.017555 30.44069 20.65793
2006-03-28 10:10:15 51°21.042 3°7.068 -999 3.017142 30.504933 20.893896
2006-03-28 10:11:15 51°20.887 3°6.933 -999 3.016728 30.518437 22.613076
2006-03-28 10:12:15 51°20.732 3°6.799 -999 3.019107 30.503595 23.658067
2006-03-28 10:13:15 51°20.578 3°6.668 -999 3.017865 30.453599 23.894033
2006-03-28 10:14:15 51°20.425 3°6.539 -999 3.016417 30.408279 23.48952
2006-03-28 10:15:15 51°20.281 3°6.398 -999 3.014245 30.368678 23.52323
2006-03-28 10:16:15 51°20.15 3°6.232 -999 3.011659 30.317689 22.680494
2006-03-28 10:17:15 51°20.034 3°6.048 -999 3.010934 30.295139 21.905178
2006-03-28 10:18:15 51°19.928 3°5.854 -999 3.011555 30.300332 21.938888
2006-03-28 10:19:15 51°19.824 3°5.652 -999 3.011762 30.306042 22.107435
2006-03-28 10:20:15 51°19.718 3°5.452 -999 3.013107 30.31843 22.242272
2006-03-28 10:21:15 51°19.613 3°5.255 -999 3.015175 30.328627 22.242272
2006-03-28 10:22:15 51°19.508 3°5.058 -999 3.017554 30.330328 22.444529
2006-03-28 10:23:15 51°19.406 3°4.847 -999 3.014761 30.309538 25.613212
2006-03-28 10:24:15 51°19.304 3°4.63 -999 3.01352 30.300863 28.00658
2006-03-28 10:25:15 51°19.201 3°4.41 -999 3.012589 30.299893 28.714477
2006-03-28 10:26:15 51°19.101 3°4.196 -999 3.012279 30.31435 30.635913
2006-03-28 10:27:15 51°19.008 3°3.989 -999 3.01352 30.332418 29.220118
2006-03-28 10:28:15 51°18.919 3°3.775 -999 3.014347 30.289617 27.332392
2006-03-28 10:29:15 51°18.83 3°3.55 -999 3.01321 30.311904 33.501212
2006-03-28 10:30:15 51°18.748 3°3.327 -999 3.01321 30.32726 32.321383
2006-03-28 10:31:15 51°18.665 3°3.108 -999 3.015589 30.362259 30.029144
2006-03-28 10:32:15 51°18.585 3°2.888 -999 3.019003 30.412218 27.804324
2006-03-28 10:33:15 51°18.507 3°2.671 -999 3.028001 30.514974 24.871606
2006-03-28 10:34:15 51°18.432 3°2.454 -999 3.03638 30.607429 23.759195
2006-03-28 10:35:15 51°18.359 3°2.238 -999 3.03938 30.649481 24.129999
2006-03-28 10:36:15 51°18.283 3°2.017 -999 3.043414 30.704827 23.860324
2006-03-28 10:37:15 51°18.206 3°1.794 -999 3.04931 30.768846 25.309828
2006-03-28 10:38:15 51°18.131 3°1.57 -999 3.057689 30.851008 30.534785
2006-03-28 10:39:15 51°18.057 3°1.354 -999 3.065136 30.858451 23.422101
2006-03-28 10:40:15 51°17.982 3°1.139 -999 3.065963 30.851189 22.242272
2006-03-28 10:41:15 51°17.903 3°0.921 -999 3.060069 30.943818 21.905178
2006-03-28 10:42:15 51°17.824 3°0.699 -999 3.058621 30.995043 22.714204
2006-03-28 10:43:15 51°17.742 3°0.477 -999 3.064828 31.058428 24.467093
2006-03-28 10:44:15 51°17.657 3°0.253 -999 3.06731 31.080966 25.410956
2006-03-28 10:45:15 51°17.572 3°0.026 -999 3.065552 31.079737 26.085144
2006-03-28 10:46:15 51°17.491 2°59.799 -999 3.059242 31.049467 25.815469
2006-03-28 10:47:15 51°17.41 2°59.575 -999 3.053967 31.012268 23.051298
2006-03-28 10:48:15 51°17.33 2°59.348 -999 3.056553 31.024571 22.174853
2006-03-28 10:49:15 51°17.251 2°59.121 -999 3.061001 31.04279 22.040016
2006-03-28 10:50:15 51°17.172 2°58.893 -999 3.063069 31.049273 21.669212
2006-03-28 10:51:15 51°17.091 2°58.664 -999 3.064414 31.064344 21.568084
2006-03-28 10:52:15 51°17.012 2°58.433 -999 3.06638 31.084611 21.736631
2006-03-28 10:53:15 51°16.93 2°58.199 -999 3.06969 31.114667 22.242272
2006-03-28 10:54:15 51°16.848 2°57.963 -999 3.071655 31.132288 23.017589
2006-03-28 10:55:15 51°16.766 2°57.726 -999 3.073207 31.138221 24.399674
2006-03-28 10:56:15 51°16.686 2°57.486 -999 3.075276 31.152586 25.107571
2006-03-28 10:57:15 51°16.604 2°57.245 -999 3.077241 31.167551 24.939024
2006-03-28 10:58:15 51°16.524 2°57.002 -999 3.077448 31.177802 25.74805
2006-03-28 10:59:15 51°16.446 2°56.76 -999 3.077655 31.178356 25.006443
2006-03-28 11:00:15 51°16.367 2°56.517 -999 3.078379 31.190879 23.590648
2006-03-28 11:01:15 51°16.288 2°56.274 -999 3.07962 31.203022 22.174853
2006-03-28 11:02:15 51°16.211 2°56.034 -999 3.081172 31.214228 21.399537
2006-03-28 11:03:15 51°16.121 2°55.804 -999 3.083655 31.241159 20.995024
2006-03-28 11:04:15 51°15.992 2°55.621 -999 3.084999 31.242974 20.860187
2006-03-28 11:05:15 51°15.854 2°55.454 -999 3.08593 31.249868 20.725349
2006-03-28 11:06:15 51°15.725 2°55.33 -999 3.091413 31.29624 20.69164
2006-03-28 11:07:15 51°15.589 2°55.237 -999 3.104758 31.400467 20.995024
2006-03-28 11:08:15 51°15.421 2°55.149 -999 3.127724 31.537471 23.320973
2006-03-28 11:09:15 51°15.248 2°55.061 -999 3.136311 31.585384 24.60193
2006-03-28 11:10:15 51°15.074 2°55.012 -999 3.159381 31.665067 24.399674
2006-03-28 11:11:15 51°14.908 2°54.948 -999 3.178625 31.757391 21.905178
2006-03-28 11:12:15 51°14.737 2°54.891 -999 3.18566 31.80609 24.703059
2006-03-28 11:13:15 51°14.556 2°54.904 -999 3.192593 31.877433 27.500939
2006-03-28 11:14:15 51°14.395 2°55.058 -999 3.206665 31.990491 24.365965
2006-03-28 11:15:15 51°14.263 2°55.271 -999 3.188764 31.798078 25.006443
2006-03-28 11:16:15 51°14.128 2°55.427 -999 3.055406 30.233261 24.332255
2006-03-28 11:17:15 51°14.007 2°55.508 -999 2.892927 28.481326 23.152426
2006-03-28 11:18:15 51°13.908 2°55.579 -999 2.870593 28.302195 24.60193
2006-03-28 11:19:15 51°13.818 2°55.644 -999 2.826545 27.777029 23.556939
2006-03-28 11:20:15 51°13.761 2°55.701 -999 2.821893 27.719764 22.781623
2006-03-28 11:21:15 51°13.722 2°55.772 -999 2.806281 27.533373 22.613076
2006-03-28 11:22:15 51°13.679 2°55.86 -999 2.812898 27.602621 34.445076
2006-03-28 11:23:14 51°13.638 2°55.956 -999 2.813001 27.603739 34.141691
2006-03-28 11:24:17 51°13.611 2°56.038 -999 2.813104 27.604857 33.400084
2006-03-28 11:25:18 51°13.601 2°56.085 -999 2.813414 27.603643 32.658477
2006-03-28 11:26:18 51°13.599 2°56.094 -999 2.813931 27.595538 32.085418